Airfield :
LOGIN :

Register | Disclaimer

   EN    FR    IT 

 










Legend :    VFR   Marginal VFR   IFR   Intensive IFR   Very Intensive IFR
Visi :
Ceiling :
>= 8 km
>= 3000ft
5 to 8 km
1000 to 3000 ft
1500m to 5 km
500 to 1000 ft
800 to 1500m
200 to 500 ft
< 800m
< 200 ft
Symbols :   Thunderstorms  Fog  Heavy snow  Heavy precipitations  Wind > 20 kt
SIGMETs :     Misc.  Thunderstorms  Icing  Turbulence  Mountain Waves  Volcanic Ashes







- Airport Elevation : 160 ft
- IATA code : FMO


EDDG - Münster Osnabrück Int.

CURRENT METAR :
  • 161150Z 22015KT 9999 BKN018 BKN020 06/02 Q1008 NOSIG

EXPIRED METARs :
  • 161120Z 22012KT 180V240 9999 BKN018 06/02 Q1008 NOSIG
  • 161050Z 22014KT 9999 BKN017 06/02 Q1008 NOSIG
  • 161020Z 21014KT 9999 FEW013 BKN016 06/03 Q1009 NOSIG
  • 160950Z 22013KT 9999 FEW013 BKN015 06/03 Q1009 NOSIG
  • 160920Z 22013G23KT 180V260 9999 FEW014 BKN016 06/03 Q1009 NOSIG

TAF TAF EDDG
Valid from the 16 at 12:00 until the 17 at 12:00 UTC


161100Z 1612/1712 22013KT 9999 BKN025
TEMPO 1612/1615 20015G25KT
TEMPO 1621/1703 22015G25KT RA BKN009
TEMPO 1708/1712 25015G25KT SHRA BKN010CB
No reported NOTAMs for that airfield.



MET'MAP, your aeronautical weather chart ! - Copyright ORBIFLY December 2007 - Disclaimer

ORBIFLY MET'MAP TEAM :

Programming & Development : Alexandra Zaïnal
Concept & Development : Baudouin d'Aumeries
Co-Development & Prog : Marc-Olivier Méhu
Technical & hardware support : Manuel Goepfert

Contact : metmap@orbifly.com




SOURCES & CREDITS :

   NOAA